Terminal Aerodrome Forecast
Issued by NWS

Home | Current Version | Previous Version | Text Only | Print | Product List | Glossary On
Versions: 1 2 3 4 5 6 7 8 9 10 11 12 13 14 15 16 17 18 19 20
000
FTUS41 KBGM 172339
TAFRME
TAF
KRME 172339Z 1800/1824 12007KT P6SM OVC070
      TEMPO 1802/1803 2SM -SN OVC022
     FM180300 16006KT 2SM -SN OVC015
      TEMPO 1803/1807 1SM -SN OVC008
     FM180900 29008KT P6SM OVC022
     FM181800 29010KT P6SM BKN035=

USA.gov is the U.S. government's official web portal to all federal, state and local government web resources and services.